createdAt,value
2018-11-11T00:00:19.521Z,57.90
2018-11-11T00:02:51.053Z,57.03
2018-11-11T00:05:22.243Z,54.27
2018-11-11T00:07:53.161Z,63.27
2018-11-11T00:10:23.137Z,58.77
2018-11-11T00:12:55.653Z,63.63
2018-11-11T00:15:25.424Z,63.37
2018-11-11T00:17:55.589Z,62.37
2018-11-11T00:20:26.286Z,62.90
2018-11-11T00:22:56.193Z,54.43
2018-11-11T00:25:25.924Z,57.07
2018-11-11T00:27:55.635Z,61.70
2018-11-11T00:30:25.309Z,55.20
2018-11-11T00:32:55.025Z,53.97
2018-11-11T00:35:24.692Z,52.77
2018-11-11T00:37:54.401Z,60.73
2018-11-11T00:40:24.102Z,53.57
2018-11-11T00:42:53.875Z,57.40
2018-11-11T00:45:23.606Z,50.90
2018-11-11T00:47:53.261Z,54.23
2018-11-11T00:50:22.901Z,58.63
2018-11-11T00:52:52.621Z,53.07
2018-11-11T00:55:22.290Z,48.67
2018-11-11T00:57:51.917Z,53.33
2018-11-11T01:00:21.619Z,50.97
2018-11-11T01:02:51.339Z,63.63
2018-11-11T01:05:21.072Z,84.70
2018-11-11T01:07:50.847Z,55.93
2018-11-11T01:10:20.535Z,57.70
2018-11-11T01:12:50.221Z,57.03
2018-11-11T01:15:19.943Z,62.47
2018-11-11T01:17:49.655Z,55.10
2018-11-11T01:20:19.347Z,63.17
2018-11-11T01:22:49.018Z,58.67
2018-11-11T01:25:18.735Z,58.57
2018-11-11T01:27:48.381Z,61.43
2018-11-11T01:30:18.113Z,54.53
2018-11-11T01:32:47.751Z,58.10
2018-11-11T01:35:17.879Z,50.67
2018-11-11T01:37:47.540Z,49.70
2018-11-11T01:40:17.202Z,59.70
2018-11-11T01:42:46.886Z,53.70
2018-11-11T01:45:18.102Z,55.23
2018-11-11T01:47:48.561Z,52.20
2018-11-11T01:50:18.224Z,51.63
2018-11-11T01:52:48.017Z,51.40
2018-11-11T01:55:17.704Z,52.70
2018-11-11T01:57:47.411Z,54.70
2018-11-11T02:00:18.950Z,55.13
2018-11-11T02:02:49.140Z,52.07
2018-11-11T02:05:18.903Z,52.63
2018-11-11T02:07:49.234Z,52.27
2018-11-11T02:10:18.943Z,55.67
2018-11-11T02:12:48.649Z,64.60
2018-11-11T02:15:18.772Z,60.13
2018-11-11T02:17:48.497Z,54.77
2018-11-11T02:20:19.367Z,46.53
2018-11-11T02:22:50.395Z,60.67
2018-11-11T02:25:20.059Z,54.57
2018-11-11T02:27:49.768Z,70.33
2018-11-11T02:30:21.599Z,56.73
2018-11-11T02:32:51.436Z,75.87
2018-11-11T02:35:21.161Z,56.87
2018-11-11T02:37:50.857Z,50.57
2018-11-11T02:40:21.331Z,51.50
2018-11-11T02:42:51.158Z,53.43
2018-11-11T02:45:21.260Z,51.10
2018-11-11T02:47:51.006Z,56.60
2018-11-11T02:50:20.852Z,57.60
2018-11-11T02:52:50.536Z,49.97
2018-11-11T02:55:20.228Z,55.93
2018-11-11T02:57:49.957Z,51.47
2018-11-11T03:00:21.569Z,55.37
2018-11-11T03:02:51.400Z,69.77
2018-11-11T03:05:21.581Z,61.40
2018-11-11T03:07:51.261Z,62.73
2018-11-11T03:10:20.922Z,66.10
2018-11-11T03:12:51.243Z,66.73
2018-11-11T03:15:21.260Z,93.63
2018-11-11T03:17:50.904Z,94.97
2018-11-11T03:20:20.603Z,154.47
2018-11-11T03:22:50.272Z,142.87
2018-11-11T03:25:19.999Z,102.00
2018-11-11T03:27:49.719Z,144.77
2018-11-11T03:30:19.384Z,111.93
2018-11-11T03:32:49.095Z,84.70
2018-11-11T03:35:18.767Z,103.03
2018-11-11T03:37:48.427Z,88.33
2018-11-11T03:40:20.525Z,79.93
2018-11-11T03:42:51.001Z,77.13
2018-11-11T03:45:21.528Z,95.13
2018-11-11T03:47:52.314Z,117.10
2018-11-11T03:50:22.001Z,91.27
2018-11-11T03:52:51.694Z,70.50
2018-11-11T03:55:21.470Z,61.33
2018-11-11T03:57:51.160Z,56.77
2018-11-11T04:00:20.833Z,59.10
2018-11-11T04:02:50.576Z,57.50
2018-11-11T04:05:20.232Z,51.03
2018-11-11T04:07:49.930Z,49.77
2018-11-11T04:10:20.331Z,53.93
2018-11-11T04:12:50.219Z,48.03
2018-11-11T04:15:20.551Z,51.43
2018-11-11T04:17:50.289Z,50.43
2018-11-11T04:20:20.986Z,51.97
2018-11-11T04:22:50.691Z,55.73
2018-11-11T04:25:20.516Z,48.47
2018-11-11T04:27:50.251Z,47.77
2018-11-11T04:30:19.896Z,50.03
2018-11-11T04:32:49.490Z,54.20
2018-11-11T04:35:19.151Z,57.27
2018-11-11T04:37:48.844Z,50.63
2018-11-11T04:40:18.609Z,45.80
2018-11-11T04:42:48.273Z,44.73
2018-11-11T04:45:18.022Z,47.30
2018-11-11T04:47:47.705Z,49.10
2018-11-11T04:50:18.694Z,46.73
2018-11-11T04:52:48.405Z,51.63
2018-11-11T04:55:18.384Z,50.47
2018-11-11T04:57:48.074Z,45.77
2018-11-11T05:00:18.185Z,52.30
2018-11-11T05:02:47.896Z,51.90
2018-11-11T05:05:18.033Z,50.40
2018-11-11T05:07:47.674Z,54.33
2018-11-11T05:10:17.960Z,55.43
2018-11-11T05:12:48.358Z,66.13
2018-11-11T05:15:18.602Z,56.47
2018-11-11T05:17:48.765Z,56.77
2018-11-11T05:20:19.028Z,57.00
2018-11-11T05:22:48.731Z,54.87
2018-11-11T05:25:19.133Z,63.43
2018-11-11T05:27:49.751Z,59.70
2018-11-11T05:30:20.628Z,51.27
2018-11-11T05:32:51.065Z,61.07
2018-11-11T05:35:21.623Z,52.40
2018-11-11T05:37:52.128Z,51.50
2018-11-11T05:40:22.433Z,57.37
2018-11-11T05:42:52.958Z,46.33
2018-11-11T05:45:23.422Z,55.57
2018-11-11T05:47:54.157Z,45.87
2018-11-11T05:50:24.724Z,49.20
2018-11-11T05:52:55.421Z,52.37
2018-11-11T05:55:28.351Z,53.37
2018-11-11T05:57:58.702Z,44.37
2018-11-11T06:00:29.281Z,41.73
2018-11-11T06:03:01.991Z,48.77
2018-11-11T06:05:32.552Z,41.90
2018-11-11T06:08:03.085Z,46.73
2018-11-11T06:10:33.818Z,47.90
2018-11-11T06:13:04.228Z,49.87
2018-11-11T06:15:34.716Z,52.07
2018-11-11T06:18:05.161Z,48.13
2018-11-11T06:20:35.612Z,45.50
2018-11-11T06:23:06.108Z,49.33
2018-11-11T06:25:36.917Z,52.53
2018-11-11T06:28:07.433Z,52.57
2018-11-11T06:30:38.006Z,51.30
2018-11-11T06:33:08.549Z,48.43
2018-11-11T06:35:38.913Z,54.13
2018-11-11T06:38:09.422Z,49.27
2018-11-11T06:40:40.101Z,52.57
2018-11-11T06:43:11.135Z,56.70
2018-11-11T06:45:42.468Z,51.90
2018-11-11T06:48:13.201Z,50.40
2018-11-11T06:50:43.714Z,49.37
2018-11-11T06:53:14.093Z,47.03
2018-11-11T06:55:44.581Z,45.57
2018-11-11T06:58:15.255Z,48.30
2018-11-11T07:00:44.950Z,43.30
2018-11-11T07:03:31.384Z,49.53
2018-11-11T07:06:01.091Z,50.10
2018-11-11T07:08:30.768Z,44.43
2018-11-11T07:11:00.425Z,44.13
2018-11-11T07:13:30.327Z,46.40
2018-11-11T07:16:00.028Z,43.40
2018-11-11T07:18:29.683Z,47.17
2018-11-11T07:20:59.366Z,40.77
2018-11-11T07:23:29.076Z,40.90
2018-11-11T07:25:59.660Z,40.67
2018-11-11T07:28:29.422Z,35.67
2018-11-11T07:30:59.073Z,42.97
2018-11-11T07:33:29.006Z,41.47
2018-11-11T07:35:59.274Z,33.83
2018-11-11T07:38:28.909Z,33.60
2018-11-11T07:40:58.583Z,35.43
2018-11-11T07:43:29.195Z,34.80
2018-11-11T07:45:58.890Z,33.27
2018-11-11T07:48:28.559Z,36.43
2018-11-11T07:50:58.198Z,35.63
2018-11-11T07:53:27.966Z,34.20
2018-11-11T07:55:57.662Z,37.40
2018-11-11T07:58:27.503Z,32.67
2018-11-11T08:00:57.132Z,36.40
2018-11-11T08:03:26.787Z,35.47
2018-11-11T08:05:56.550Z,37.30
2018-11-11T08:08:26.267Z,34.17
2018-11-11T08:11:13.233Z,36.63
2018-11-11T08:13:43.061Z,36.77
2018-11-11T08:16:12.761Z,36.87
2018-11-11T08:18:43.673Z,33.20
2018-11-11T08:21:15.096Z,33.33
2018-11-11T08:23:44.871Z,35.67
2018-11-11T08:26:15.008Z,40.93
2018-11-11T08:28:44.832Z,43.07
2018-11-11T08:31:14.472Z,37.10
2018-11-11T08:33:44.616Z,32.37
2018-11-11T08:36:14.322Z,38.20
2018-11-11T08:38:44.099Z,34.87
2018-11-11T08:41:13.787Z,36.30
2018-11-11T08:43:43.492Z,36.30
2018-11-11T08:46:13.226Z,34.83
2018-11-11T08:48:43.828Z,38.43
2018-11-11T08:51:13.505Z,36.83
2018-11-11T08:53:43.269Z,39.37
2018-11-11T08:56:13.063Z,35.60
2018-11-11T08:58:42.752Z,40.73
2018-11-11T09:01:12.481Z,39.07
2018-11-11T09:03:42.852Z,43.17
2018-11-11T09:06:12.579Z,34.47
2018-11-11T09:08:43.575Z,40.43
2018-11-11T09:11:13.378Z,36.13
2018-11-11T09:13:44.683Z,34.47
2018-11-11T09:16:14.422Z,35.53
2018-11-11T09:18:44.384Z,36.60
2018-11-11T09:21:14.193Z,39.37
2018-11-11T09:23:43.901Z,34.30
2018-11-11T09:26:13.590Z,35.53
2018-11-11T09:28:46.295Z,30.67
2018-11-11T09:31:16.015Z,37.17
2018-11-11T09:33:46.207Z,34.33
2018-11-11T09:36:17.676Z,33.23
2018-11-11T09:38:47.560Z,30.70
2018-11-11T09:41:24.367Z,34.30
2018-11-11T09:43:57.358Z,31.73
2018-11-11T09:46:27.862Z,30.03
2018-11-11T09:48:57.635Z,34.33
2018-11-11T09:51:28.723Z,31.10
2018-11-11T09:53:59.091Z,34.13
2018-11-11T09:56:29.021Z,33.60
2018-11-11T09:58:58.738Z,32.87
2018-11-11T10:01:30.006Z,37.03
2018-11-11T10:04:09.280Z,32.87
2018-11-11T10:07:45.047Z,33.87
2018-11-11T10:10:49.066Z,38.17
2018-11-11T10:13:29.034Z,42.43
2018-11-11T10:16:07.340Z,40.80
2018-11-11T10:18:44.587Z,32.07
2018-11-11T10:22:17.797Z,37.27
2018-11-11T10:26:55.551Z,41.37
2018-11-11T10:29:30.181Z,42.70
2018-11-11T10:32:08.216Z,49.07
2018-11-11T10:34:56.090Z,42.03
2018-11-11T10:37:32.254Z,36.53
2018-11-11T10:40:07.486Z,47.43
2018-11-11T10:42:48.418Z,38.13
2018-11-11T10:45:27.251Z,38.90
2018-11-11T10:48:03.828Z,36.27
2018-11-11T10:50:43.857Z,38.17
2018-11-11T10:53:13.582Z,38.00
2018-11-11T10:55:43.241Z,36.67
2018-11-11T10:58:12.955Z,35.53
2018-11-11T11:00:48.024Z,31.87
2018-11-11T11:03:22.923Z,38.40
2018-11-11T11:05:52.639Z,33.77
2018-11-11T11:08:22.211Z,32.80
2018-11-11T11:10:51.854Z,34.97
2018-11-11T11:13:21.592Z,31.97
2018-11-11T11:15:51.299Z,34.27
2018-11-11T11:18:21.089Z,35.27
2018-11-11T11:20:50.743Z,33.07
2018-11-11T11:23:20.415Z,33.83
2018-11-11T11:25:50.253Z,33.17
2018-11-11T11:28:19.849Z,29.97
2018-11-11T11:30:49.492Z,28.17
2018-11-11T11:33:19.205Z,35.07
2018-11-11T11:35:48.983Z,31.20
2018-11-11T11:38:18.716Z,30.50
2018-11-11T11:40:48.397Z,27.83
2018-11-11T11:43:18.050Z,28.97
2018-11-11T11:45:47.807Z,29.73
2018-11-11T11:48:17.492Z,27.90
2018-11-11T11:50:47.285Z,34.13
2018-11-11T11:53:16.960Z,34.17
2018-11-11T11:55:46.752Z,29.20
2018-11-11T11:58:24.832Z,30.70
2018-11-11T12:00:54.463Z,31.63
2018-11-11T12:03:24.306Z,32.57
2018-11-11T12:05:53.978Z,35.23
2018-11-11T12:08:24.053Z,28.70
2018-11-11T12:10:55.210Z,27.90
2018-11-11T12:13:25.011Z,27.37
2018-11-11T12:15:55.091Z,30.30
2018-11-11T12:18:24.768Z,30.67
2018-11-11T12:20:54.495Z,29.97
2018-11-11T12:23:24.402Z,33.60
2018-11-11T12:25:53.949Z,28.37
2018-11-11T12:28:23.636Z,29.70
2018-11-11T12:30:53.348Z,28.47
2018-11-11T12:33:22.991Z,26.77
2018-11-11T12:35:52.689Z,29.53
2018-11-11T12:38:22.422Z,27.83
2018-11-11T12:40:52.170Z,29.30
2018-11-11T12:43:21.898Z,30.50
2018-11-11T12:45:51.711Z,31.17
2018-11-11T12:48:21.482Z,25.97
2018-11-11T12:50:52.152Z,30.67
2018-11-11T12:53:21.952Z,29.30
2018-11-11T12:55:52.026Z,29.80
2018-11-11T12:58:22.332Z,30.13
2018-11-11T13:00:52.108Z,29.70
2018-11-11T13:03:22.572Z,27.67
2018-11-11T13:05:52.318Z,34.43
2018-11-11T13:08:22.298Z,29.53
2018-11-11T13:10:52.105Z,30.87
2018-11-11T13:13:22.577Z,31.40
2018-11-11T13:15:52.260Z,36.47
2018-11-11T13:18:22.331Z,32.57
2018-11-11T13:20:52.059Z,37.17
2018-11-11T13:23:22.914Z,32.00
2018-11-11T13:25:52.819Z,32.07
2018-11-11T13:28:22.589Z,35.63
2018-11-11T13:30:52.446Z,35.73
2018-11-11T13:33:22.153Z,41.53
2018-11-11T13:35:53.374Z,42.73
2018-11-11T13:38:23.812Z,42.10
2018-11-11T13:40:53.539Z,36.23
2018-11-11T13:43:23.677Z,33.13
2018-11-11T13:45:53.485Z,31.07
2018-11-11T13:48:23.137Z,26.80
2018-11-11T13:50:52.848Z,26.23
2018-11-11T13:53:22.927Z,28.87
2018-11-11T13:55:52.883Z,28.27
2018-11-11T13:58:22.794Z,28.83
2018-11-11T14:00:53.295Z,25.97
2018-11-11T14:03:23.100Z,29.20
2018-11-11T14:05:52.891Z,28.50
2018-11-11T14:08:22.926Z,24.20
2018-11-11T14:10:52.693Z,26.50
2018-11-11T14:13:22.505Z,27.80
2018-11-11T14:15:52.354Z,25.43
2018-11-11T14:18:22.129Z,27.23
2018-11-11T14:20:51.936Z,25.50
2018-11-11T14:23:21.760Z,26.90
2018-11-11T14:25:51.535Z,28.53
2018-11-11T14:28:22.158Z,24.90
2018-11-11T14:30:51.951Z,26.73
2018-11-11T14:33:21.757Z,27.03
2018-11-11T14:35:51.545Z,26.53
2018-11-11T14:38:21.270Z,23.37
2018-11-11T14:40:51.071Z,27.23
2018-11-11T14:43:35.917Z,30.67
2018-11-11T14:46:06.095Z,27.90
2018-11-11T14:48:35.777Z,36.00
2018-11-11T14:51:05.758Z,30.50
2018-11-11T14:53:35.694Z,31.70
2018-11-11T14:56:07.867Z,36.03
2018-11-11T14:58:38.112Z,32.03
2018-11-11T15:01:07.982Z,32.40
2018-11-11T15:03:38.309Z,38.17
2018-11-11T15:06:08.315Z,35.83
2018-11-11T15:08:38.626Z,37.17
2018-11-11T15:11:08.672Z,34.97
2018-11-11T15:13:39.491Z,37.53
2018-11-11T15:16:09.206Z,35.77
2018-11-11T15:18:40.466Z,37.67
2018-11-11T15:21:10.439Z,39.20
2018-11-11T15:23:40.749Z,39.37
2018-11-11T15:26:10.463Z,42.70
2018-11-11T15:28:40.439Z,43.23
2018-11-11T15:31:11.238Z,44.23
2018-11-11T15:33:42.632Z,43.77
2018-11-11T15:36:12.262Z,43.20
2018-11-11T15:38:42.571Z,41.57
2018-11-11T15:41:12.314Z,37.57
2018-11-11T15:43:42.236Z,39.97
2018-11-11T15:46:11.979Z,41.87
2018-11-11T15:48:42.959Z,46.10
2018-11-11T15:51:12.834Z,41.83
2018-11-11T15:53:42.571Z,50.10
2018-11-11T15:56:12.278Z,47.80
2018-11-11T15:58:42.571Z,49.50
2018-11-11T16:01:12.316Z,46.53
2018-11-11T16:03:43.559Z,46.70
2018-11-11T16:06:13.723Z,43.97
2018-11-11T16:08:43.431Z,44.40
2018-11-11T16:11:13.099Z,42.20
2018-11-11T16:13:43.138Z,48.40
2018-11-11T16:16:12.987Z,49.60
2018-11-11T16:18:44.208Z,48.77
2018-11-11T16:21:15.727Z,52.93
2018-11-11T16:23:45.599Z,46.50
2018-11-11T16:26:15.184Z,50.13
2018-11-11T16:28:44.876Z,54.87
2018-11-11T16:31:14.529Z,45.47
2018-11-11T16:33:44.813Z,51.80
2018-11-11T16:36:14.969Z,60.08
2018-11-11T16:38:44.853Z,52.17
2018-11-11T16:41:14.843Z,51.37
2018-11-11T16:43:47.359Z,52.90
2018-11-11T16:46:17.131Z,57.57
2018-11-11T16:48:47.285Z,57.73
2018-11-11T16:51:17.074Z,54.37
2018-11-11T16:53:46.681Z,46.63
2018-11-11T16:56:17.564Z,52.67
2018-11-11T16:58:47.269Z,46.47
2018-11-11T17:01:16.940Z,46.90
2018-11-11T17:03:46.642Z,42.23
2018-11-11T17:06:16.409Z,45.50
2018-11-11T17:08:46.261Z,41.83
2018-11-11T17:11:15.954Z,45.93
2018-11-11T17:13:45.874Z,46.33
2018-11-11T17:16:15.624Z,44.40
2018-11-11T17:18:46.118Z,49.77
2018-11-11T17:21:18.770Z,45.70
2018-11-11T17:23:49.101Z,48.67
2018-11-11T17:26:19.208Z,46.47
2018-11-11T17:28:49.145Z,41.50
2018-11-11T17:31:18.913Z,45.20
2018-11-11T17:33:49.341Z,45.53
2018-11-11T17:36:19.183Z,40.20
2018-11-11T17:38:48.878Z,37.03
2018-11-11T17:41:18.595Z,39.27
2018-11-11T17:43:48.490Z,35.87
2018-11-11T17:46:18.247Z,38.93
2018-11-11T17:48:47.966Z,37.73
2018-11-11T17:51:18.135Z,35.40
2018-11-11T17:53:48.110Z,34.77
2018-11-11T17:56:18.113Z,35.60
2018-11-11T17:58:47.954Z,37.63
2018-11-11T18:01:17.891Z,36.30
2018-11-11T18:03:47.859Z,38.83
2018-11-11T18:06:17.841Z,36.53
2018-11-11T18:08:47.780Z,38.30
2018-11-11T18:11:17.704Z,33.33
2018-11-11T18:13:47.599Z,30.10
2018-11-11T18:16:17.502Z,29.73
2018-11-11T18:18:47.447Z,29.60
2018-11-11T18:21:17.266Z,32.23
2018-11-11T18:23:46.920Z,28.73
2018-11-11T18:26:16.778Z,30.17
2018-11-11T18:28:46.613Z,30.10
2018-11-11T18:31:16.380Z,28.53
2018-11-11T18:33:46.287Z,28.20
2018-11-11T18:36:16.030Z,31.60
2018-11-11T18:38:45.743Z,25.77
2018-11-11T18:41:15.534Z,27.00
2018-11-11T18:43:45.417Z,23.63
2018-11-11T18:46:16.037Z,23.80
2018-11-11T18:48:46.355Z,24.93
2018-11-11T18:51:16.408Z,26.00
2018-11-11T18:53:47.703Z,28.63
2018-11-11T18:56:17.685Z,24.97
2018-11-11T18:58:47.541Z,27.13
2018-11-11T19:01:17.656Z,92.47
2018-11-11T19:03:47.348Z,74.40
2018-11-11T19:06:18.249Z,64.20
2018-11-11T19:08:47.976Z,50.70
2018-11-11T19:11:17.893Z,48.77
2018-11-11T19:13:47.655Z,65.17
2018-11-11T19:16:18.370Z,129.27
2018-11-11T19:18:48.389Z,362.70
2018-11-11T19:21:18.554Z,402.37
2018-11-11T19:23:48.445Z,326.97
2018-11-11T19:26:18.540Z,229.60
2018-11-11T19:29:11.848Z,136.67
2018-11-11T19:31:41.589Z,174.83
2018-11-11T19:34:11.527Z,208.70
2018-11-11T19:36:42.889Z,281.07
2018-11-11T19:39:13.620Z,223.20
2018-11-11T19:41:43.355Z,183.03
2018-11-11T19:44:13.085Z,72.00
2018-11-11T19:46:43.210Z,94.30
2018-11-11T19:49:12.933Z,94.00
2018-11-11T19:51:43.506Z,97.57
2018-11-11T19:54:13.124Z,113.73
2018-11-11T19:56:42.989Z,54.83
2018-11-11T19:59:12.855Z,68.60
2018-11-11T20:01:42.996Z,85.93
2018-11-11T20:04:14.600Z,86.60
2018-11-11T20:06:44.736Z,58.50
2018-11-11T20:09:14.811Z,58.07
2018-11-11T20:11:44.619Z,66.60
2018-11-11T20:14:16.022Z,94.53
2018-11-11T20:16:46.024Z,69.20
2018-11-11T20:19:15.782Z,45.67
2018-11-11T20:21:46.460Z,44.80
2018-11-11T20:24:16.302Z,50.27
2018-11-11T20:26:46.163Z,40.27
2018-11-11T20:29:15.959Z,38.23
2018-11-11T20:31:45.807Z,43.53
2018-11-11T20:34:15.967Z,40.03
2018-11-11T20:36:45.725Z,42.90
2018-11-11T20:39:15.544Z,41.83
2018-11-11T20:41:45.391Z,33.80
2018-11-11T20:44:15.269Z,31.93
2018-11-11T20:46:45.623Z,29.43
2018-11-11T20:49:15.339Z,28.77
2018-11-11T20:51:45.214Z,29.80
2018-11-11T20:54:15.029Z,29.23
2018-11-11T20:56:44.856Z,30.10
2018-11-11T20:59:14.692Z,28.93
2018-11-11T21:01:47.609Z,31.07
2018-11-11T21:04:17.525Z,30.13
2018-11-11T21:06:47.253Z,31.40
2018-11-11T21:09:17.036Z,31.27
2018-11-11T21:11:46.631Z,31.63
2018-11-11T21:14:16.352Z,32.03
2018-11-11T21:16:46.953Z,31.57
2018-11-11T21:19:16.763Z,27.67
2018-11-11T21:21:48.187Z,28.70
2018-11-11T21:24:17.928Z,27.17
2018-11-11T21:26:47.710Z,28.50
2018-11-11T21:29:17.391Z,28.57
2018-11-11T21:31:47.166Z,30.00
2018-11-11T21:34:16.919Z,28.20
2018-11-11T21:36:46.601Z,27.40
2018-11-11T21:39:16.361Z,30.63
2018-11-11T21:41:46.232Z,29.10
2018-11-11T21:44:16.092Z,28.37
2018-11-11T21:46:46.932Z,27.80
2018-11-11T21:49:16.802Z,29.37
2018-11-11T21:51:46.870Z,28.50
2018-11-11T21:54:16.761Z,28.87
2018-11-11T21:56:46.665Z,28.63
2018-11-11T21:59:16.777Z,30.57
2018-11-11T22:01:46.687Z,27.87
2018-11-11T22:04:16.683Z,29.03
2018-11-11T22:06:46.479Z,29.03
2018-11-11T22:09:17.192Z,28.53
2018-11-11T22:11:47.889Z,30.67
2018-11-11T22:14:17.465Z,29.43
2018-11-11T22:16:47.301Z,30.97
2018-11-11T22:19:17.225Z,30.07
2018-11-11T22:21:46.968Z,31.00
2018-11-11T22:24:16.621Z,31.10
2018-11-11T22:26:46.295Z,31.23
2018-11-11T22:29:16.572Z,36.97
2018-11-11T22:31:46.287Z,36.93
2018-11-11T22:34:15.985Z,38.70
2018-11-11T22:36:45.803Z,36.07
2018-11-11T22:39:15.697Z,34.43
2018-11-11T22:41:45.406Z,37.07
2018-11-11T22:44:15.056Z,34.73
2018-11-11T22:46:44.728Z,34.27
2018-11-11T22:49:14.451Z,42.00
2018-11-11T22:51:44.602Z,35.60
2018-11-11T22:54:14.312Z,39.20
2018-11-11T22:56:44.036Z,42.07
2018-11-11T22:59:13.773Z,41.70
2018-11-11T23:01:44.126Z,44.93
2018-11-11T23:04:13.893Z,40.00
2018-11-11T23:06:44.229Z,39.07
2018-11-11T23:09:14.142Z,39.50
2018-11-11T23:11:44.485Z,38.23
2018-11-11T23:14:14.136Z,43.47
2018-11-11T23:16:43.826Z,39.33
2018-11-11T23:19:13.514Z,41.80
2018-11-11T23:21:43.799Z,38.13
2018-11-11T23:24:13.539Z,41.60
2018-11-11T23:26:43.320Z,45.03
2018-11-11T23:29:13.001Z,40.23
2018-11-11T23:31:42.703Z,40.77
2018-11-11T23:34:12.704Z,40.80
2018-11-11T23:36:43.444Z,45.73
2018-11-11T23:39:13.105Z,38.77
2018-11-11T23:41:42.763Z,41.03
2018-11-11T23:44:12.453Z,38.67
2018-11-11T23:46:42.139Z,41.07
2018-11-11T23:49:11.807Z,41.73
2018-11-11T23:51:42.589Z,44.83
2018-11-11T23:54:12.194Z,43.93
2018-11-11T23:56:41.956Z,42.00
2018-11-11T23:59:11.606Z,43.60
